»·PEaware :: SWA805 KABQ-KPHX

SWA805 :: KABQ-KPHX

FLIGHT INFORMATION

Flight Status: Arrived
Operator:
Southwest Airlines
More flights by this operator :: More flights under this callsign
Pilot: Drew L. (13237)
Aircraft: BOEING 737-800
(B738)
More flights by this aircraft type
Origin: KABQ Albuquerque Intl Sunport
United States
Destination: KPHX Phoenix Sky Harbor Intl
United States
More flights between these airports :: More routes between these airports
Route: ADYOS3 ZUN EAGUL6
File this flight plan on PilotEdge
Remarks: PBN / A1B1C1D1S1S2 DOF / 181102 REG / N806SB OPR / SWA PER / C RMK / TCAS SIMBRIEF
Altitude:
(Current/Filed)
36,000ft
Speed:
(Current/Filed)
437kts
Departed: 01-Nov-18 05:23 PM
Arrived: 01-Nov-18 06:14 PM
Distance/Time
Traveled:
284nm/0:51
Distance/Time
To Go:
Arrived

Flight Plot

Page will automatically refresh every two minutes.

Flight plan parsing failed; only flown route is shown


Map Options




Map Legend


Flown Route
Filed Route
Departure Airport
Arrival Airport
Navaid (VOR, NDB)
Fix

Horizontal Profiles

Position Reports

Time Latitude Longitude Heading Altitude Ground
Speed
01-Nov-18 17:06 35.047884 -106.614314 213 5323ft 0kts
01-Nov-18 17:07 35.047884 -106.614314 213 5323ft 0kts
01-Nov-18 17:08 35.047884 -106.614314 213 5323ft 0kts
01-Nov-18 17:09 35.047884 -106.614314 213 5323ft 0kts
01-Nov-18 17:10 35.047884 -106.614314 213 5323ft 0kts
01-Nov-18 17:11 35.047884 -106.614314 213 5323ft 0kts
01-Nov-18 17:12 35.047884 -106.614314 213 5323ft 0kts
01-Nov-18 17:13 35.047884 -106.614314 213 5323ft 0kts
01-Nov-18 17:14 35.047884 -106.614314 213 5323ft 0kts
01-Nov-18 17:15 35.048238 -106.614030 212 5323ft 2kts
01-Nov-18 17:16 35.048801 -106.613812 183 5323ft 2kts
01-Nov-18 17:17 35.048881 -106.613808 180 5323ft 0kts
01-Nov-18 17:18 35.048881 -106.613808 180 5323ft 0kts
01-Nov-18 17:19 35.048881 -106.613808 180 5323ft 0kts
01-Nov-18 17:20 35.048198 -106.613255 144 5323ft 11kts
01-Nov-18 17:21 35.042530 -106.613564 126 5323ft 18kts
01-Nov-18 17:22 35.042421 -106.608949 90 5323ft 0kts
01-Nov-18 17:23 35.042414 -106.608151 90 5323ft 8kts
01-Nov-18 17:24 35.041539 -106.607311 224 5323ft 0kts
01-Nov-18 17:25 35.041493 -106.607367 224 5323ft 0kts
01-Nov-18 17:26 35.032912 -106.617697 225 5323ft 138kts
01-Nov-18 17:27 35.010322 -106.660225 273 6937ft 157kts
01-Nov-18 17:28 35.014302 -106.726497 276 7765ft 243kts
01-Nov-18 17:29 35.026812 -106.815515 284 9534ft 277kts
01-Nov-18 17:30 35.045074 -106.911483 284 11239ft 307kts
01-Nov-18 17:31 35.045319 -107.018006 272 13727ft 321kts
01-Nov-18 17:32 35.041829 -107.128591 273 16288ft 332kts
01-Nov-18 17:33 35.038348 -107.242810 274 18576ft 344kts
01-Nov-18 17:34 35.034703 -107.361456 275 20849ft 357kts
01-Nov-18 17:35 35.030845 -107.484324 275 22983ft 370kts
01-Nov-18 17:36 35.026708 -107.611798 276 24917ft 382kts
01-Nov-18 17:37 35.022288 -107.743001 275 26652ft 394kts
01-Nov-18 17:38 35.017584 -107.878193 276 28260ft 406kts
01-Nov-18 17:39 35.012592 -108.017298 276 29791ft 415kts
01-Nov-18 17:40 35.007340 -108.157703 276 31559ft 414kts
01-Nov-18 17:41 35.001983 -108.296943 277 33221ft 412kts
01-Nov-18 17:42 34.996488 -108.436144 277 34738ft 409kts
01-Nov-18 17:43 34.990901 -108.573793 277 36139ft 406kts
01-Nov-18 17:44 34.985429 -108.710125 276 36255ft 433kts
01-Nov-18 17:45 34.979032 -108.859544 275 36246ft 444kts
01-Nov-18 17:46 34.972396 -109.008949 276 36248ft 444kts
01-Nov-18 17:47 34.960784 -109.159803 265 36255ft 461kts
01-Nov-18 17:48 34.910211 -109.307861 255 36248ft 474kts
01-Nov-18 17:49 34.856984 -109.452797 255 36232ft 471kts
01-Nov-18 17:50 34.803554 -109.598143 255 36232ft 471kts
01-Nov-18 17:51 34.763215 -109.707436 254 36234ft 472kts
01-Nov-18 17:52 34.709504 -109.852388 254 36231ft 472kts
01-Nov-18 17:53 34.666197 -109.968892 254 36231ft 473kts
01-Nov-18 17:53 34.637564 -110.045664 254 36230ft 473kts
01-Nov-18 17:54 34.582407 -110.193198 254 36215ft 482kts
01-Nov-18 17:56 34.518881 -110.362084 254 35608ft 489kts
01-Nov-18 17:56 34.470771 -110.489250 254 33639ft 494kts
01-Nov-18 17:57 34.413345 -110.640318 253 29922ft 489kts
01-Nov-18 17:58 34.367114 -110.761223 250 27437ft 473kts
01-Nov-18 17:59 34.287185 -110.883193 231 25149ft 455kts
01-Nov-18 18:00 34.207273 -110.985418 232 23684ft 420kts
01-Nov-18 18:01 34.128800 -111.086412 231 21635ft 405kts
01-Nov-18 18:02 34.053488 -111.183089 231 19670ft 390kts
01-Nov-18 18:03 33.981630 -111.275115 230 17786ft 376kts
01-Nov-18 18:04 33.911261 -111.365019 230 15942ft 363kts
01-Nov-18 18:05 33.848276 -111.433281 217 14709ft 346kts
01-Nov-18 18:06 33.771874 -111.498030 217 13152ft 335kts
01-Nov-18 18:07 33.699957 -111.559688 217 11312ft 322kts
01-Nov-18 18:08 33.632932 -111.617005 217 9279ft 308kts
01-Nov-18 18:09 33.570798 -111.669569 219 7867ft 280kts
01-Nov-18 18:10 33.514120 -111.722274 219 6418ft 268kts
01-Nov-18 18:11 33.458263 -111.774781 219 4634ft 259kts
01-Nov-18 18:12 33.428849 -111.840951 278 3897ft 254kts
01-Nov-18 18:13 33.428756 -111.916884 272 2650ft 213kts
01-Nov-18 18:14 33.428711 -111.975597 270 1677ft 157kts
01-Nov-18 18:15 33.428847 -112.017764 269 1116ft 59kts
01-Nov-18 18:16 33.429941 -112.018329 90 1116ft 32kts
01-Nov-18 18:17 33.430923 -112.008943 357 1116ft 20kts
01-Nov-18 18:18 33.432125 -112.001400 88 1117ft 30kts
01-Nov-18 18:19 33.434030 -111.997533 85 1116ft 12kts

Navigation Log

Ident Type
Flight plan parsing failed, navigation log unavailable